sensor_id;sensor_type;location;lat;lon;timestamp;P1;durP1;ratioP1;P2;durP2;ratioP2
6007;SDS011;3032;49.484;11.112;2023-08-17T00:01:24;8.03;;;7.23;;
6007;SDS011;3032;49.484;11.112;2023-08-17T00:03:49;7.23;;;6.53;;
6007;SDS011;3032;49.484;11.112;2023-08-17T00:06:15;8.03;;;7.03;;
6007;SDS011;3032;49.484;11.112;2023-08-17T00:08:41;8.47;;;6.53;;
6007;SDS011;3032;49.484;11.112;2023-08-17T00:11:07;9.55;;;7.50;;
6007;SDS011;3032;49.484;11.112;2023-08-17T00:13:32;7.47;;;6.77;;
6007;SDS011;3032;49.484;11.112;2023-08-17T00:15:58;8.53;;;6.83;;
6007;SDS011;3032;49.484;11.112;2023-08-17T00:18:23;7.23;;;6.30;;
6007;SDS011;3032;49.484;11.112;2023-08-17T00:20:49;7.70;;;6.93;;
6007;SDS011;3032;49.484;11.112;2023-08-17T00:23:14;8.07;;;7.47;;
6007;SDS011;3032;49.484;11.112;2023-08-17T00:25:40;7.90;;;7.30;;
6007;SDS011;3032;49.484;11.112;2023-08-17T00:28:06;9.40;;;6.80;;
6007;SDS011;3032;49.484;11.112;2023-08-17T00:30:31;7.40;;;6.80;;
6007;SDS011;3032;49.484;11.112;2023-08-17T00:33:00;8.13;;;7.32;;
6007;SDS011;3032;49.484;11.112;2023-08-17T00:35:27;7.43;;;6.60;;
6007;SDS011;3032;49.484;11.112;2023-08-17T00:38:24;15.63;;;7.30;;
6007;SDS011;3032;49.484;11.112;2023-08-17T00:41:01;8.43;;;6.45;;
6007;SDS011;3032;49.484;11.112;2023-08-17T00:43:36;10.38;;;7.53;;
6007;SDS011;3032;49.484;11.112;2023-08-17T00:46:35;11.60;;;7.55;;
6007;SDS011;3032;49.484;11.112;2023-08-17T00:49:49;8.07;;;7.28;;
6007;SDS011;3032;49.484;11.112;2023-08-17T00:52:42;8.57;;;6.57;;
6007;SDS011;3032;49.484;11.112;2023-08-17T00:55:29;8.05;;;6.78;;
6007;SDS011;3032;49.484;11.112;2023-08-17T00:58:06;7.80;;;7.00;;
6007;SDS011;3032;49.484;11.112;2023-08-17T01:00:44;8.13;;;7.40;;
6007;SDS011;3032;49.484;11.112;2023-08-17T01:03:41;7.53;;;6.70;;
6007;SDS011;3032;49.484;11.112;2023-08-17T01:06:29;7.80;;;7.10;;
6007;SDS011;3032;49.484;11.112;2023-08-17T01:08:55;8.37;;;7.40;;
6007;SDS011;3032;49.484;11.112;2023-08-17T01:11:32;8.03;;;7.20;;
6007;SDS011;3032;49.484;11.112;2023-08-17T01:14:04;8.40;;;7.70;;
6007;SDS011;3032;49.484;11.112;2023-08-17T01:16:47;8.25;;;7.55;;
6007;SDS011;3032;49.484;11.112;2023-08-17T01:19:17;8.45;;;7.18;;
6007;SDS011;3032;49.484;11.112;2023-08-17T01:21:54;7.90;;;7.30;;
6007;SDS011;3032;49.484;11.112;2023-08-17T01:24:25;8.75;;;7.57;;
6007;SDS011;3032;49.484;11.112;2023-08-17T01:26:51;10.85;;;7.28;;
6007;SDS011;3032;49.484;11.112;2023-08-17T01:29:17;7.10;;;6.50;;
6007;SDS011;3032;49.484;11.112;2023-08-17T01:31:46;9.18;;;8.20;;
6007;SDS011;3032;49.484;11.112;2023-08-17T01:34:16;8.18;;;7.57;;
6007;SDS011;3032;49.484;11.112;2023-08-17T01:36:50;9.75;;;7.70;;
6007;SDS011;3032;49.484;11.112;2023-08-17T01:39:22;8.88;;;8.02;;
6007;SDS011;3032;49.484;11.112;2023-08-17T01:41:52;9.68;;;8.25;;
6007;SDS011;3032;49.484;11.112;2023-08-17T01:44:18;8.80;;;7.90;;
6007;SDS011;3032;49.484;11.112;2023-08-17T01:46:45;9.20;;;8.23;;
6007;SDS011;3032;49.484;11.112;2023-08-17T01:49:11;8.07;;;7.40;;
6007;SDS011;3032;49.484;11.112;2023-08-17T01:51:36;10.33;;;8.60;;
6007;SDS011;3032;49.484;11.112;2023-08-17T01:54:02;8.73;;;7.83;;
6007;SDS011;3032;49.484;11.112;2023-08-17T01:56:27;10.97;;;8.73;;
6007;SDS011;3032;49.484;11.112;2023-08-17T01:58:53;8.40;;;7.70;;
6007;SDS011;3032;49.484;11.112;2023-08-17T02:01:18;9.67;;;8.27;;
6007;SDS011;3032;49.484;11.112;2023-08-17T02:03:44;12.77;;;8.20;;
6007;SDS011;3032;49.484;11.112;2023-08-17T02:06:09;9.07;;;7.93;;
6007;SDS011;3032;49.484;11.112;2023-08-17T02:08:35;7.90;;;7.10;;
6007;SDS011;3032;49.484;11.112;2023-08-17T02:11:02;8.48;;;7.40;;
6007;SDS011;3032;49.484;11.112;2023-08-17T02:13:27;10.40;;;8.53;;
6007;SDS011;3032;49.484;11.112;2023-08-17T02:15:53;10.60;;;8.70;;
6007;SDS011;3032;49.484;11.112;2023-08-17T02:18:19;8.73;;;7.90;;
6007;SDS011;3032;49.484;11.112;2023-08-17T02:20:45;11.00;;;9.10;;
6007;SDS011;3032;49.484;11.112;2023-08-17T02:23:10;9.47;;;8.67;;
6007;SDS011;3032;49.484;11.112;2023-08-17T02:25:39;13.07;;;8.83;;
6007;SDS011;3032;49.484;11.112;2023-08-17T02:28:05;9.13;;;8.02;;
6007;SDS011;3032;49.484;11.112;2023-08-17T02:30:30;8.70;;;8.00;;
6007;SDS011;3032;49.484;11.112;2023-08-17T02:32:56;8.67;;;7.97;;
6007;SDS011;3032;49.484;11.112;2023-08-17T02:35:22;9.90;;;8.68;;
6007;SDS011;3032;49.484;11.112;2023-08-17T02:37:48;10.00;;;9.03;;
6007;SDS011;3032;49.484;11.112;2023-08-17T02:40:13;9.70;;;8.33;;
6007;SDS011;3032;49.484;11.112;2023-08-17T02:42:39;8.60;;;7.90;;
6007;SDS011;3032;49.484;11.112;2023-08-17T02:45:05;9.17;;;8.37;;
6007;SDS011;3032;49.484;11.112;2023-08-17T02:47:32;9.77;;;8.48;;
6007;SDS011;3032;49.484;11.112;2023-08-17T02:49:57;11.73;;;8.47;;
6007;SDS011;3032;49.484;11.112;2023-08-17T02:52:23;8.77;;;8.07;;
6007;SDS011;3032;49.484;11.112;2023-08-17T02:54:48;9.63;;;8.43;;
6007;SDS011;3032;49.484;11.112;2023-08-17T02:57:14;10.10;;;8.27;;
6007;SDS011;3032;49.484;11.112;2023-08-17T02:59:41;9.90;;;8.85;;
6007;SDS011;3032;49.484;11.112;2023-08-17T03:02:06;10.00;;;8.77;;
6007;SDS011;3032;49.484;11.112;2023-08-17T03:04:32;11.63;;;9.07;;
6007;SDS011;3032;49.484;11.112;2023-08-17T03:06:58;9.40;;;8.45;;
6007;SDS011;3032;49.484;11.112;2023-08-17T03:09:24;9.77;;;8.77;;
6007;SDS011;3032;49.484;11.112;2023-08-17T03:11:49;10.20;;;9.00;;
6007;SDS011;3032;49.484;11.112;2023-08-17T03:14:15;11.63;;;8.40;;
6007;SDS011;3032;49.484;11.112;2023-08-17T03:16:40;9.27;;;8.30;;
6007;SDS011;3032;49.484;11.112;2023-08-17T03:19:06;10.33;;;9.37;;
6007;SDS011;3032;49.484;11.112;2023-08-17T03:21:33;15.20;;;9.82;;
6007;SDS011;3032;49.484;11.112;2023-08-17T03:23:59;10.15;;;9.15;;
6007;SDS011;3032;49.484;11.112;2023-08-17T03:26:24;10.00;;;9.00;;
6007;SDS011;3032;49.484;11.112;2023-08-17T03:28:50;13.77;;;9.07;;
6007;SDS011;3032;49.484;11.112;2023-08-17T03:31:16;9.90;;;8.67;;
6007;SDS011;3032;49.484;11.112;2023-08-17T03:33:41;9.20;;;8.33;;
6007;SDS011;3032;49.484;11.112;2023-08-17T03:36:07;10.17;;;8.50;;
6007;SDS011;3032;49.484;11.112;2023-08-17T03:38:32;10.17;;;8.40;;
6007;SDS011;3032;49.484;11.112;2023-08-17T03:40:58;10.00;;;8.97;;
6007;SDS011;3032;49.484;11.112;2023-08-17T03:43:23;10.43;;;9.30;;
6007;SDS011;3032;49.484;11.112;2023-08-17T03:45:51;9.55;;;8.65;;
6007;SDS011;3032;49.484;11.112;2023-08-17T03:48:16;12.73;;;9.40;;
6007;SDS011;3032;49.484;11.112;2023-08-17T03:50:42;12.33;;;9.20;;
6007;SDS011;3032;49.484;11.112;2023-08-17T03:53:08;9.63;;;8.70;;
6007;SDS011;3032;49.484;11.112;2023-08-17T03:55:33;9.50;;;8.60;;
6007;SDS011;3032;49.484;11.112;2023-08-17T03:57:59;10.67;;;9.57;;
6007;SDS011;3032;49.484;11.112;2023-08-17T04:00:24;9.90;;;8.13;;
6007;SDS011;3032;49.484;11.112;2023-08-17T04:02:50;9.63;;;8.73;;
6007;SDS011;3032;49.484;11.112;2023-08-17T04:05:16;8.77;;;7.90;;
6007;SDS011;3032;49.484;11.112;2023-08-17T04:07:41;10.07;;;9.03;;
6007;SDS011;3032;49.484;11.112;2023-08-17T04:10:07;11.03;;;9.10;;
6007;SDS011;3032;49.484;11.112;2023-08-17T04:12:33;10.18;;;9.27;;
6007;SDS011;3032;49.484;11.112;2023-08-17T04:14:59;10.47;;;9.37;;
6007;SDS011;3032;49.484;11.112;2023-08-17T04:21:54;9.68;;;8.73;;
6007;SDS011;3032;49.484;11.112;2023-08-17T04:27:38;9.85;;;8.85;;
6007;SDS011;3032;49.484;11.112;2023-08-17T04:30:04;11.17;;;9.20;;
6007;SDS011;3032;49.484;11.112;2023-08-17T04:32:30;10.93;;;9.50;;
6007;SDS011;3032;49.484;11.112;2023-08-17T04:34:55;10.60;;;9.00;;
6007;SDS011;3032;49.484;11.112;2023-08-17T04:37:21;10.40;;;8.87;;
6007;SDS011;3032;49.484;11.112;2023-08-17T04:39:47;9.90;;;8.90;;
6007;SDS011;3032;49.484;11.112;2023-08-17T04:42:14;10.88;;;9.82;;
6007;SDS011;3032;49.484;11.112;2023-08-17T04:44:39;11.37;;;9.63;;
6007;SDS011;3032;49.484;11.112;2023-08-17T04:47:05;11.97;;;8.60;;
6007;SDS011;3032;49.484;11.112;2023-08-17T04:49:31;10.70;;;9.70;;
6007;SDS011;3032;49.484;11.112;2023-08-17T04:51:56;10.40;;;9.30;;
6007;SDS011;3032;49.484;11.112;2023-08-17T04:54:22;9.80;;;8.87;;
6007;SDS011;3032;49.484;11.112;2023-08-17T04:56:48;10.40;;;9.30;;
6007;SDS011;3032;49.484;11.112;2023-08-17T04:59:13;10.07;;;9.07;;
6007;SDS011;3032;49.484;11.112;2023-08-17T05:01:39;9.50;;;8.03;;
6007;SDS011;3032;49.484;11.112;2023-08-17T05:04:04;10.50;;;8.40;;
6007;SDS011;3032;49.484;11.112;2023-08-17T05:06:30;10.05;;;9.25;;
6007;SDS011;3032;49.484;11.112;2023-08-17T05:08:56;10.20;;;9.30;;
6007;SDS011;3032;49.484;11.112;2023-08-17T05:11:22;9.40;;;8.50;;
6007;SDS011;3032;49.484;11.112;2023-08-17T05:20:49;9.65;;;8.00;;
6007;SDS011;3032;49.484;11.112;2023-08-17T05:23:15;9.07;;;8.20;;
6007;SDS011;3032;49.484;11.112;2023-08-17T05:25:40;8.30;;;7.50;;
6007;SDS011;3032;49.484;11.112;2023-08-17T05:28:06;7.97;;;7.20;;
6007;SDS011;3032;49.484;11.112;2023-08-17T05:30:32;11.13;;;7.10;;
6007;SDS011;3032;49.484;11.112;2023-08-17T05:32:58;8.77;;;7.90;;
6007;SDS011;3032;49.484;11.112;2023-08-17T05:35:23;8.03;;;6.90;;
6007;SDS011;3032;49.484;11.112;2023-08-17T05:37:51;7.18;;;6.57;;
6007;SDS011;3032;49.484;11.112;2023-08-17T05:40:16;8.63;;;7.70;;
6007;SDS011;3032;49.484;11.112;2023-08-17T05:42:42;7.53;;;6.88;;
6007;SDS011;3032;49.484;11.112;2023-08-17T05:45:08;7.43;;;6.73;;
6007;SDS011;3032;49.484;11.112;2023-08-17T05:47:34;8.98;;;6.80;;
6007;SDS011;3032;49.484;11.112;2023-08-17T05:49:59;7.50;;;6.90;;
6007;SDS011;3032;49.484;11.112;2023-08-17T05:52:25;6.30;;;5.90;;
6007;SDS011;3032;49.484;11.112;2023-08-17T05:54:50;6.70;;;6.20;;
6007;SDS011;3032;49.484;11.112;2023-08-17T05:57:16;9.50;;;6.87;;
6007;SDS011;3032;49.484;11.112;2023-08-17T05:59:41;7.47;;;6.70;;
6007;SDS011;3032;49.484;11.112;2023-08-17T06:02:07;6.67;;;6.07;;
6007;SDS011;3032;49.484;11.112;2023-08-17T06:07:06;6.38;;;5.78;;
6007;SDS011;3032;49.484;11.112;2023-08-17T06:09:31;11.90;;;7.37;;
6007;SDS011;3032;49.484;11.112;2023-08-17T06:11:57;8.40;;;6.37;;
6007;SDS011;3032;49.484;11.112;2023-08-17T06:14:22;6.63;;;6.13;;
6007;SDS011;3032;49.484;11.112;2023-08-17T06:16:48;6.83;;;5.23;;
6007;SDS011;3032;49.484;11.112;2023-08-17T06:19:14;7.10;;;6.47;;
6007;SDS011;3032;49.484;11.112;2023-08-17T06:21:39;5.93;;;5.30;;
6007;SDS011;3032;49.484;11.112;2023-08-17T06:24:05;7.30;;;5.20;;
6007;SDS011;3032;49.484;11.112;2023-08-17T06:26:31;7.10;;;6.50;;
6007;SDS011;3032;49.484;11.112;2023-08-17T06:28:56;5.37;;;4.83;;
6007;SDS011;3032;49.484;11.112;2023-08-17T06:31:22;5.80;;;5.30;;
6007;SDS011;3032;49.484;11.112;2023-08-17T06:33:52;6.60;;;6.00;;
6007;SDS011;3032;49.484;11.112;2023-08-17T06:36:20;5.68;;;5.25;;
6007;SDS011;3032;49.484;11.112;2023-08-17T06:38:46;5.77;;;5.37;;
6007;SDS011;3032;49.484;11.112;2023-08-17T06:41:11;6.10;;;5.60;;
6007;SDS011;3032;49.484;11.112;2023-08-17T06:43:37;7.80;;;6.20;;
6007;SDS011;3032;49.484;11.112;2023-08-17T06:46:02;6.33;;;5.10;;
6007;SDS011;3032;49.484;11.112;2023-08-17T06:48:28;12.23;;;5.77;;
6007;SDS011;3032;49.484;11.112;2023-08-17T06:50:54;6.70;;;5.90;;
6007;SDS011;3032;49.484;11.112;2023-08-17T06:53:19;5.83;;;5.23;;
6007;SDS011;3032;49.484;11.112;2023-08-17T06:55:45;6.20;;;5.70;;
6007;SDS011;3032;49.484;11.112;2023-08-17T06:58:11;7.13;;;6.43;;
6007;SDS011;3032;49.484;11.112;2023-08-17T07:00:36;6.57;;;6.17;;
6007;SDS011;3032;49.484;11.112;2023-08-17T07:03:04;5.40;;;5.00;;
6007;SDS011;3032;49.484;11.112;2023-08-17T07:05:29;6.73;;;5.90;;
6007;SDS011;3032;49.484;11.112;2023-08-17T07:07:55;9.07;;;5.93;;
6007;SDS011;3032;49.484;11.112;2023-08-17T07:10:22;6.32;;;5.72;;
6007;SDS011;3032;49.484;11.112;2023-08-17T07:12:47;6.00;;;5.50;;
6007;SDS011;3032;49.484;11.112;2023-08-17T07:15:13;5.77;;;5.47;;
6007;SDS011;3032;49.484;11.112;2023-08-17T07:17:40;7.72;;;5.25;;
6007;SDS011;3032;49.484;11.112;2023-08-17T07:20:06;5.70;;;5.30;;
6007;SDS011;3032;49.484;11.112;2023-08-17T07:22:32;5.28;;;4.90;;
6007;SDS011;3032;49.484;11.112;2023-08-17T07:24:58;10.00;;;5.27;;
6007;SDS011;3032;49.484;11.112;2023-08-17T07:27:23;5.97;;;5.37;;
6007;SDS011;3032;49.484;11.112;2023-08-17T07:29:50;6.25;;;5.50;;
6007;SDS011;3032;49.484;11.112;2023-08-17T07:32:15;5.03;;;4.70;;
6007;SDS011;3032;49.484;11.112;2023-08-17T07:34:41;5.63;;;5.13;;
6007;SDS011;3032;49.484;11.112;2023-08-17T07:37:06;10.10;;;4.93;;
6007;SDS011;3032;49.484;11.112;2023-08-17T07:39:32;5.13;;;4.80;;
6007;SDS011;3032;49.484;11.112;2023-08-17T07:41:58;5.55;;;5.15;;
6007;SDS011;3032;49.484;11.112;2023-08-17T07:44:23;5.97;;;5.10;;
6007;SDS011;3032;49.484;11.112;2023-08-17T07:46:49;4.80;;;4.50;;
6007;SDS011;3032;49.484;11.112;2023-08-17T07:49:15;6.17;;;5.57;;
6007;SDS011;3032;49.484;11.112;2023-08-17T07:51:40;8.23;;;5.10;;
6007;SDS011;3032;49.484;11.112;2023-08-17T07:54:06;5.57;;;5.13;;
6007;SDS011;3032;49.484;11.112;2023-08-17T07:56:32;5.20;;;4.90;;
6007;SDS011;3032;49.484;11.112;2023-08-17T07:58:58;5.10;;;4.80;;
6007;SDS011;3032;49.484;11.112;2023-08-17T08:01:23;8.03;;;4.80;;
6007;SDS011;3032;49.484;11.112;2023-08-17T08:03:49;5.00;;;4.53;;
6007;SDS011;3032;49.484;11.112;2023-08-17T08:06:15;5.80;;;5.40;;
6007;SDS011;3032;49.484;11.112;2023-08-17T08:08:40;5.27;;;4.97;;
6007;SDS011;3032;49.484;11.112;2023-08-17T08:11:06;5.20;;;4.90;;
6007;SDS011;3032;49.484;11.112;2023-08-17T08:13:32;6.27;;;5.77;;
6007;SDS011;3032;49.484;11.112;2023-08-17T08:16:00;4.90;;;4.70;;
6007;SDS011;3032;49.484;11.112;2023-08-17T08:18:26;5.80;;;5.43;;
6007;SDS011;3032;49.484;11.112;2023-08-17T08:20:52;5.23;;;4.93;;
6007;SDS011;3032;49.484;11.112;2023-08-17T08:23:17;5.93;;;5.43;;
6007;SDS011;3032;49.484;11.112;2023-08-17T08:25:43;4.70;;;4.23;;
6007;SDS011;3032;49.484;11.112;2023-08-17T08:28:09;5.27;;;4.77;;
6007;SDS011;3032;49.484;11.112;2023-08-17T08:30:34;4.80;;;4.50;;
6007;SDS011;3032;49.484;11.112;2023-08-17T08:33:00;4.70;;;4.30;;
6007;SDS011;3032;49.484;11.112;2023-08-17T08:35:26;5.73;;;5.40;;
6007;SDS011;3032;49.484;11.112;2023-08-17T08:37:53;6.17;;;4.27;;
6007;SDS011;3032;49.484;11.112;2023-08-17T08:40:20;4.57;;;4.30;;
6007;SDS011;3032;49.484;11.112;2023-08-17T08:42:52;4.73;;;4.43;;
6007;SDS011;3032;49.484;11.112;2023-08-17T08:45:18;4.97;;;4.60;;
6007;SDS011;3032;49.484;11.112;2023-08-17T08:47:45;4.63;;;4.33;;
6007;SDS011;3032;49.484;11.112;2023-08-17T08:50:12;4.60;;;4.17;;
6007;SDS011;3032;49.484;11.112;2023-08-17T08:52:44;4.80;;;4.50;;
6007;SDS011;3032;49.484;11.112;2023-08-17T08:55:24;4.47;;;4.17;;
6007;SDS011;3032;49.484;11.112;2023-08-17T08:57:57;5.53;;;5.03;;
6007;SDS011;3032;49.484;11.112;2023-08-17T09:00:24;5.03;;;4.73;;
6007;SDS011;3032;49.484;11.112;2023-08-17T09:02:50;5.20;;;4.80;;
6007;SDS011;3032;49.484;11.112;2023-08-17T09:05:16;5.50;;;5.03;;
6007;SDS011;3032;49.484;11.112;2023-08-17T09:07:42;5.63;;;5.13;;
6007;SDS011;3032;49.484;11.112;2023-08-17T09:10:09;5.30;;;4.70;;
6007;SDS011;3032;49.484;11.112;2023-08-17T09:12:35;5.00;;;4.70;;
6007;SDS011;3032;49.484;11.112;2023-08-17T09:15:01;5.33;;;5.03;;
6007;SDS011;3032;49.484;11.112;2023-08-17T09:17:27;4.67;;;4.37;;
6007;SDS011;3032;49.484;11.112;2023-08-17T09:19:53;5.40;;;5.10;;
6007;SDS011;3032;49.484;11.112;2023-08-17T09:22:25;4.47;;;4.27;;
6007;SDS011;3032;49.484;11.112;2023-08-17T09:25:01;6.30;;;5.70;;
6007;SDS011;3032;49.484;11.112;2023-08-17T09:27:27;5.07;;;4.87;;
6007;SDS011;3032;49.484;11.112;2023-08-17T09:29:52;5.30;;;5.00;;
6007;SDS011;3032;49.484;11.112;2023-08-17T09:32:29;4.30;;;4.10;;
6007;SDS011;3032;49.484;11.112;2023-08-17T09:34:55;5.50;;;4.50;;
6007;SDS011;3032;49.484;11.112;2023-08-17T09:37:20;5.50;;;5.00;;
6007;SDS011;3032;49.484;11.112;2023-08-17T09:39:46;5.60;;;5.10;;
6007;SDS011;3032;49.484;11.112;2023-08-17T09:42:11;4.80;;;4.60;;
6007;SDS011;3032;49.484;11.112;2023-08-17T09:44:37;6.13;;;5.57;;
6007;SDS011;3032;49.484;11.112;2023-08-17T09:47:04;6.20;;;5.80;;
6007;SDS011;3032;49.484;11.112;2023-08-17T09:49:33;6.53;;;6.03;;
6007;SDS011;3032;49.484;11.112;2023-08-17T09:51:59;5.93;;;5.60;;
6007;SDS011;3032;49.484;11.112;2023-08-17T09:54:26;5.60;;;5.20;;
6007;SDS011;3032;49.484;11.112;2023-08-17T09:56:55;6.03;;;5.63;;
6007;SDS011;3032;49.484;11.112;2023-08-17T09:59:22;5.43;;;5.03;;
6007;SDS011;3032;49.484;11.112;2023-08-17T10:01:49;4.67;;;4.47;;
6007;SDS011;3032;49.484;11.112;2023-08-17T10:04:22;5.40;;;4.90;;
6007;SDS011;3032;49.484;11.112;2023-08-17T10:06:50;4.90;;;4.60;;
6007;SDS011;3032;49.484;11.112;2023-08-17T10:09:20;4.20;;;4.10;;
6007;SDS011;3032;49.484;11.112;2023-08-17T10:11:49;8.80;;;4.53;;
6007;SDS011;3032;49.484;11.112;2023-08-17T10:14:18;5.27;;;4.90;;
6007;SDS011;3032;49.484;11.112;2023-08-17T10:16:53;5.93;;;4.83;;
6007;SDS011;3032;49.484;11.112;2023-08-17T10:19:28;5.77;;;5.47;;
6007;SDS011;3032;49.484;11.112;2023-08-17T10:24:37;5.93;;;5.53;;
6007;SDS011;3032;49.484;11.112;2023-08-17T10:27:04;5.87;;;5.37;;
6007;SDS011;3032;49.484;11.112;2023-08-17T10:29:31;5.40;;;4.90;;
6007;SDS011;3032;49.484;11.112;2023-08-17T10:31:58;5.80;;;5.30;;
6007;SDS011;3032;49.484;11.112;2023-08-17T10:34:26;5.70;;;5.30;;
6007;SDS011;3032;49.484;11.112;2023-08-17T10:36:52;7.10;;;5.30;;
6007;SDS011;3032;49.484;11.112;2023-08-17T10:39:23;5.87;;;5.37;;
6007;SDS011;3032;49.484;11.112;2023-08-17T10:41:51;5.70;;;5.30;;
6007;SDS011;3032;49.484;11.112;2023-08-17T10:44:17;5.40;;;5.00;;
6007;SDS011;3032;49.484;11.112;2023-08-17T10:47:17;5.50;;;5.30;;
6007;SDS011;3032;49.484;11.112;2023-08-17T10:49:56;6.33;;;5.77;;
6007;SDS011;3032;49.484;11.112;2023-08-17T10:52:26;5.67;;;5.17;;
6007;SDS011;3032;49.484;11.112;2023-08-17T10:54:59;5.53;;;5.17;;
6007;SDS011;3032;49.484;11.112;2023-08-17T11:02:52;5.83;;;5.50;;
6007;SDS011;3032;49.484;11.112;2023-08-17T11:08:22;5.70;;;4.90;;
6007;SDS011;3032;49.484;11.112;2023-08-17T11:11:03;5.87;;;4.97;;
6007;SDS011;3032;49.484;11.112;2023-08-17T11:13:29;5.20;;;5.00;;
6007;SDS011;3032;49.484;11.112;2023-08-17T11:16:00;6.67;;;6.00;;
6007;SDS011;3032;49.484;11.112;2023-08-17T11:18:26;5.00;;;4.80;;
6007;SDS011;3032;49.484;11.112;2023-08-17T11:20:52;5.87;;;4.93;;
6007;SDS011;3032;49.484;11.112;2023-08-17T11:23:19;5.30;;;4.90;;
6007;SDS011;3032;49.484;11.112;2023-08-17T11:25:45;5.17;;;4.97;;
6007;SDS011;3032;49.484;11.112;2023-08-17T11:28:11;9.30;;;5.10;;
6007;SDS011;3032;49.484;11.112;2023-08-17T11:30:39;5.67;;;5.17;;
6007;SDS011;3032;49.484;11.112;2023-08-17T11:33:06;5.00;;;4.72;;
6007;SDS011;3032;49.484;11.112;2023-08-17T11:35:32;5.65;;;5.25;;
6007;SDS011;3032;49.484;11.112;2023-08-17T11:37:58;5.80;;;5.40;;
6007;SDS011;3032;49.484;11.112;2023-08-17T11:40:24;6.03;;;5.63;;
6007;SDS011;3032;49.484;11.112;2023-08-17T11:42:51;5.85;;;5.45;;
6007;SDS011;3032;49.484;11.112;2023-08-17T11:45:17;5.80;;;5.50;;
6007;SDS011;3032;49.484;11.112;2023-08-17T11:47:43;6.00;;;5.50;;
6007;SDS011;3032;49.484;11.112;2023-08-17T11:50:09;6.27;;;5.77;;
6007;SDS011;3032;49.484;11.112;2023-08-17T11:52:36;5.90;;;5.50;;
6007;SDS011;3032;49.484;11.112;2023-08-17T11:55:05;5.73;;;5.37;;
6007;SDS011;3032;49.484;11.112;2023-08-17T11:57:32;9.00;;;6.27;;
6007;SDS011;3032;49.484;11.112;2023-08-17T11:59:59;5.53;;;5.03;;
6007;SDS011;3032;49.484;11.112;2023-08-17T12:02:29;5.77;;;5.47;;
6007;SDS011;3032;49.484;11.112;2023-08-17T12:04:55;5.17;;;4.87;;
6007;SDS011;3032;49.484;11.112;2023-08-17T12:07:23;4.90;;;4.50;;
6007;SDS011;3032;49.484;11.112;2023-08-17T12:09:49;5.00;;;4.70;;
6007;SDS011;3032;49.484;11.112;2023-08-17T12:12:19;5.73;;;5.23;;
6007;SDS011;3032;49.484;11.112;2023-08-17T12:14:47;7.53;;;5.00;;
6007;SDS011;3032;49.484;11.112;2023-08-17T12:17:17;5.60;;;5.20;;
6007;SDS011;3032;49.484;11.112;2023-08-17T12:19:44;5.90;;;5.40;;
6007;SDS011;3032;49.484;11.112;2023-08-17T12:22:13;6.03;;;5.50;;
6007;SDS011;3032;49.484;11.112;2023-08-17T12:24:39;5.43;;;5.07;;
6007;SDS011;3032;49.484;11.112;2023-08-17T12:27:05;5.20;;;4.70;;
6007;SDS011;3032;49.484;11.112;2023-08-17T12:29:31;6.72;;;6.13;;
6007;SDS011;3032;49.484;11.112;2023-08-17T12:31:57;5.53;;;5.10;;
6007;SDS011;3032;49.484;11.112;2023-08-17T12:34:24;6.22;;;5.88;;
6007;SDS011;3032;49.484;11.112;2023-08-17T12:36:50;5.70;;;5.30;;
6007;SDS011;3032;49.484;11.112;2023-08-17T12:39:16;6.40;;;5.80;;
6007;SDS011;3032;49.484;11.112;2023-08-17T12:41:41;5.50;;;5.10;;
6007;SDS011;3032;49.484;11.112;2023-08-17T12:44:10;5.67;;;5.17;;
6007;SDS011;3032;49.484;11.112;2023-08-17T12:46:38;6.00;;;5.18;;
6007;SDS011;3032;49.484;11.112;2023-08-17T12:49:04;6.28;;;5.88;;
6007;SDS011;3032;49.484;11.112;2023-08-17T12:51:30;6.37;;;5.77;;
6007;SDS011;3032;49.484;11.112;2023-08-17T12:53:55;7.83;;;5.00;;
6007;SDS011;3032;49.484;11.112;2023-08-17T12:56:21;6.07;;;5.57;;
6007;SDS011;3032;49.484;11.112;2023-08-17T12:58:46;5.70;;;5.20;;
6007;SDS011;3032;49.484;11.112;2023-08-17T13:01:12;6.57;;;6.07;;
6007;SDS011;3032;49.484;11.112;2023-08-17T13:03:39;6.75;;;5.60;;
6007;SDS011;3032;49.484;11.112;2023-08-17T13:06:04;6.03;;;5.50;;
6007;SDS011;3032;49.484;11.112;2023-08-17T13:08:30;6.30;;;5.30;;
6007;SDS011;3032;49.484;11.112;2023-08-17T13:10:55;5.47;;;5.10;;
6007;SDS011;3032;49.484;11.112;2023-08-17T13:13:21;4.80;;;4.50;;
6007;SDS011;3032;49.484;11.112;2023-08-17T13:15:47;5.40;;;5.10;;
6007;SDS011;3032;49.484;11.112;2023-08-17T13:18:12;5.10;;;4.80;;
6007;SDS011;3032;49.484;11.112;2023-08-17T13:20:38;5.33;;;4.90;;
6007;SDS011;3032;49.484;11.112;2023-08-17T13:23:05;5.00;;;4.70;;
6007;SDS011;3032;49.484;11.112;2023-08-17T13:25:31;5.73;;;5.23;;
6007;SDS011;3032;49.484;11.112;2023-08-17T13:27:56;5.10;;;4.80;;
6007;SDS011;3032;49.484;11.112;2023-08-17T13:30:22;4.70;;;4.40;;
6007;SDS011;3032;49.484;11.112;2023-08-17T13:32:47;4.90;;;4.50;;
6007;SDS011;3032;49.484;11.112;2023-08-17T13:35:13;5.90;;;3.70;;
6007;SDS011;3032;49.484;11.112;2023-08-17T13:37:40;4.93;;;4.40;;
6007;SDS011;3032;49.484;11.112;2023-08-17T13:40:05;4.13;;;3.83;;
6007;SDS011;3032;49.484;11.112;2023-08-17T13:42:31;3.83;;;3.60;;
6007;SDS011;3032;49.484;11.112;2023-08-17T13:44:57;7.57;;;4.03;;
6007;SDS011;3032;49.484;11.112;2023-08-17T13:47:23;6.53;;;4.50;;
6007;SDS011;3032;49.484;11.112;2023-08-17T13:49:48;4.87;;;4.47;;
6007;SDS011;3032;49.484;11.112;2023-08-17T13:52:14;4.90;;;4.60;;
6007;SDS011;3032;49.484;11.112;2023-08-17T13:54:39;6.17;;;5.60;;
6007;SDS011;3032;49.484;11.112;2023-08-17T13:57:05;7.00;;;4.60;;
6007;SDS011;3032;49.484;11.112;2023-08-17T13:59:31;5.10;;;4.80;;
6007;SDS011;3032;49.484;11.112;2023-08-17T14:01:56;6.60;;;6.00;;
6007;SDS011;3032;49.484;11.112;2023-08-17T14:04:22;5.63;;;5.33;;
6007;SDS011;3032;49.484;11.112;2023-08-17T14:06:47;6.00;;;5.43;;
6007;SDS011;3032;49.484;11.112;2023-08-17T14:09:13;5.67;;;5.30;;
6007;SDS011;3032;49.484;11.112;2023-08-17T14:11:39;7.03;;;5.50;;
6007;SDS011;3032;49.484;11.112;2023-08-17T14:14:04;6.87;;;6.17;;
6007;SDS011;3032;49.484;11.112;2023-08-17T14:16:30;6.97;;;6.47;;
6007;SDS011;3032;49.484;11.112;2023-08-17T14:18:56;7.30;;;6.70;;
6007;SDS011;3032;49.484;11.112;2023-08-17T14:21:22;8.63;;;6.60;;
6007;SDS011;3032;49.484;11.112;2023-08-17T14:23:47;7.23;;;6.80;;
6007;SDS011;3032;49.484;11.112;2023-08-17T14:26:13;6.60;;;6.20;;
6007;SDS011;3032;49.484;11.112;2023-08-17T14:28:39;7.07;;;6.40;;
6007;SDS011;3032;49.484;11.112;2023-08-17T14:31:04;7.40;;;6.90;;
6007;SDS011;3032;49.484;11.112;2023-08-17T14:33:30;6.67;;;5.80;;
6007;SDS011;3032;49.484;11.112;2023-08-17T14:35:55;7.17;;;6.60;;
6007;SDS011;3032;49.484;11.112;2023-08-17T14:38:21;6.37;;;5.87;;
6007;SDS011;3032;49.484;11.112;2023-08-17T14:40:47;6.20;;;5.70;;
6007;SDS011;3032;49.484;11.112;2023-08-17T14:43:13;6.00;;;5.60;;
6007;SDS011;3032;49.484;11.112;2023-08-17T14:45:39;7.17;;;6.30;;
6007;SDS011;3032;49.484;11.112;2023-08-17T14:48:06;7.13;;;6.40;;
6007;SDS011;3032;49.484;11.112;2023-08-17T14:50:32;7.20;;;6.47;;
6007;SDS011;3032;49.484;11.112;2023-08-17T14:53:02;7.60;;;6.90;;
6007;SDS011;3032;49.484;11.112;2023-08-17T14:55:29;7.47;;;6.85;;
6007;SDS011;3032;49.484;11.112;2023-08-17T14:57:55;7.55;;;7.03;;
6007;SDS011;3032;49.484;11.112;2023-08-17T15:00:20;7.93;;;7.07;;
6007;SDS011;3032;49.484;11.112;2023-08-17T15:02:46;9.03;;;6.97;;
6007;SDS011;3032;49.484;11.112;2023-08-17T15:05:11;7.10;;;6.50;;
6007;SDS011;3032;49.484;11.112;2023-08-17T15:07:37;7.83;;;7.13;;
6007;SDS011;3032;49.484;11.112;2023-08-17T15:10:03;8.10;;;7.50;;
6007;SDS011;3032;49.484;11.112;2023-08-17T15:12:28;7.40;;;6.83;;
6007;SDS011;3032;49.484;11.112;2023-08-17T15:14:54;7.97;;;7.17;;
6007;SDS011;3032;49.484;11.112;2023-08-17T15:17:19;7.73;;;6.97;;
6007;SDS011;3032;49.484;11.112;2023-08-17T15:19:45;7.87;;;7.07;;
6007;SDS011;3032;49.484;11.112;2023-08-17T15:22:10;6.60;;;6.20;;
6007;SDS011;3032;49.484;11.112;2023-08-17T15:24:36;7.00;;;6.37;;
6007;SDS011;3032;49.484;11.112;2023-08-17T15:27:02;7.90;;;7.27;;
6007;SDS011;3032;49.484;11.112;2023-08-17T15:29:28;8.15;;;7.40;;